sensor_id;sensor_type;location;lat;lon;timestamp;P1;durP1;ratioP1;P2;durP2;ratioP2
50683;SDS011;36654;45.042;38.994;2023-08-17T00:02:17;9.25;;;5.85;;
50683;SDS011;36654;45.042;38.994;2023-08-17T00:04:43;9.23;;;5.82;;
50683;SDS011;36654;45.042;38.994;2023-08-17T00:07:09;12.15;;;5.65;;
50683;SDS011;36654;45.042;38.994;2023-08-17T00:09:34;9.07;;;5.90;;
50683;SDS011;36654;45.042;38.994;2023-08-17T00:12:00;9.45;;;5.15;;
50683;SDS011;36654;45.042;38.994;2023-08-17T00:14:25;7.78;;;5.35;;
50683;SDS011;36654;45.042;38.994;2023-08-17T00:16:51;12.18;;;5.35;;
50683;SDS011;36654;45.042;38.994;2023-08-17T00:19:17;11.40;;;5.82;;
50683;SDS011;36654;45.042;38.994;2023-08-17T00:21:44;10.82;;;6.55;;
50683;SDS011;36654;45.042;38.994;2023-08-17T00:24:10;15.85;;;6.07;;
50683;SDS011;36654;45.042;38.994;2023-08-17T00:26:36;8.52;;;5.45;;
50683;SDS011;36654;45.042;38.994;2023-08-17T00:29:02;7.75;;;5.40;;
50683;SDS011;36654;45.042;38.994;2023-08-17T00:31:28;7.82;;;5.68;;
50683;SDS011;36654;45.042;38.994;2023-08-17T00:33:54;10.80;;;5.97;;
50683;SDS011;36654;45.042;38.994;2023-08-17T00:36:20;11.13;;;6.05;;
50683;SDS011;36654;45.042;38.994;2023-08-17T00:38:46;8.57;;;6.05;;
50683;SDS011;36654;45.042;38.994;2023-08-17T00:41:11;8.68;;;6.22;;
50683;SDS011;36654;45.042;38.994;2023-08-17T00:43:37;10.35;;;5.43;;
50683;SDS011;36654;45.042;38.994;2023-08-17T00:46:02;11.15;;;6.05;;
50683;SDS011;36654;45.042;38.994;2023-08-17T00:48:28;8.40;;;5.68;;
50683;SDS011;36654;45.042;38.994;2023-08-17T00:50:56;8.25;;;5.45;;
50683;SDS011;36654;45.042;38.994;2023-08-17T00:53:25;10.02;;;6.22;;
50683;SDS011;36654;45.042;38.994;2023-08-17T00:55:54;10.70;;;6.10;;
50683;SDS011;36654;45.042;38.994;2023-08-17T00:58:21;6.57;;;5.38;;
50683;SDS011;36654;45.042;38.994;2023-08-17T01:00:47;10.40;;;6.28;;
50683;SDS011;36654;45.042;38.994;2023-08-17T01:03:13;11.32;;;6.70;;
50683;SDS011;36654;45.042;38.994;2023-08-17T01:05:39;9.85;;;6.22;;
50683;SDS011;36654;45.042;38.994;2023-08-17T01:08:05;8.38;;;5.88;;
50683;SDS011;36654;45.042;38.994;2023-08-17T01:10:34;9.52;;;6.60;;
50683;SDS011;36654;45.042;38.994;2023-08-17T01:13:08;8.93;;;6.05;;
50683;SDS011;36654;45.042;38.994;2023-08-17T01:15:42;10.98;;;6.55;;
50683;SDS011;36654;45.042;38.994;2023-08-17T01:20:53;8.38;;;6.15;;
50683;SDS011;36654;45.042;38.994;2023-08-17T01:23:20;9.43;;;6.85;;
50683;SDS011;36654;45.042;38.994;2023-08-17T01:25:46;11.25;;;6.20;;
50683;SDS011;36654;45.042;38.994;2023-08-17T01:28:11;11.70;;;5.88;;
50683;SDS011;36654;45.042;38.994;2023-08-17T01:30:47;11.05;;;5.95;;
50683;SDS011;36654;45.042;38.994;2023-08-17T01:36:22;10.63;;;6.32;;
50683;SDS011;36654;45.042;38.994;2023-08-17T01:38:52;10.40;;;5.65;;
50683;SDS011;36654;45.042;38.994;2023-08-17T01:41:20;10.25;;;6.20;;
50683;SDS011;36654;45.042;38.994;2023-08-17T01:43:48;10.68;;;7.10;;
50683;SDS011;36654;45.042;38.994;2023-08-17T01:46:14;10.68;;;6.15;;
50683;SDS011;36654;45.042;38.994;2023-08-17T01:48:41;10.70;;;6.28;;
50683;SDS011;36654;45.042;38.994;2023-08-17T01:51:07;12.93;;;6.32;;
50683;SDS011;36654;45.042;38.994;2023-08-17T01:53:33;9.75;;;6.13;;
50683;SDS011;36654;45.042;38.994;2023-08-17T01:55:59;7.45;;;5.38;;
50683;SDS011;36654;45.042;38.994;2023-08-17T01:58:25;6.25;;;5.30;;
50683;SDS011;36654;45.042;38.994;2023-08-17T02:00:50;12.90;;;5.80;;
50683;SDS011;36654;45.042;38.994;2023-08-17T02:03:16;9.43;;;6.18;;
50683;SDS011;36654;45.042;38.994;2023-08-17T02:05:45;11.55;;;6.18;;
50683;SDS011;36654;45.042;38.994;2023-08-17T02:08:11;9.80;;;6.30;;
50683;SDS011;36654;45.042;38.994;2023-08-17T02:10:37;12.02;;;6.53;;
50683;SDS011;36654;45.042;38.994;2023-08-17T02:13:03;7.00;;;5.93;;
50683;SDS011;36654;45.042;38.994;2023-08-17T02:15:29;9.40;;;6.00;;
50683;SDS011;36654;45.042;38.994;2023-08-17T02:17:54;9.18;;;6.18;;
50683;SDS011;36654;45.042;38.994;2023-08-17T02:20:21;7.13;;;6.00;;
50683;SDS011;36654;45.042;38.994;2023-08-17T02:22:47;6.90;;;5.88;;
50683;SDS011;36654;45.042;38.994;2023-08-17T02:25:12;9.85;;;6.07;;
50683;SDS011;36654;45.042;38.994;2023-08-17T02:27:38;9.85;;;6.32;;
50683;SDS011;36654;45.042;38.994;2023-08-17T02:30:04;14.88;;;6.70;;
50683;SDS011;36654;45.042;38.994;2023-08-17T02:32:29;7.90;;;5.85;;
50683;SDS011;36654;45.042;38.994;2023-08-17T02:34:55;11.60;;;6.13;;
50683;SDS011;36654;45.042;38.994;2023-08-17T02:37:21;10.23;;;5.10;;
50683;SDS011;36654;45.042;38.994;2023-08-17T02:39:46;9.88;;;5.68;;
50683;SDS011;36654;45.042;38.994;2023-08-17T02:42:12;12.85;;;5.72;;
50683;SDS011;36654;45.042;38.994;2023-08-17T02:44:38;10.15;;;5.28;;
50683;SDS011;36654;45.042;38.994;2023-08-17T02:47:03;12.20;;;6.35;;
50683;SDS011;36654;45.042;38.994;2023-08-17T02:49:29;6.63;;;5.97;;
50683;SDS011;36654;45.042;38.994;2023-08-17T02:51:54;7.13;;;5.57;;
50683;SDS011;36654;45.042;38.994;2023-08-17T02:54:20;7.38;;;5.82;;
50683;SDS011;36654;45.042;38.994;2023-08-17T02:56:46;10.85;;;5.47;;
50683;SDS011;36654;45.042;38.994;2023-08-17T02:59:11;6.80;;;5.60;;
50683;SDS011;36654;45.042;38.994;2023-08-17T03:01:37;6.70;;;5.57;;
50683;SDS011;36654;45.042;38.994;2023-08-17T03:04:03;10.85;;;6.03;;
50683;SDS011;36654;45.042;38.994;2023-08-17T03:06:28;9.73;;;5.53;;
50683;SDS011;36654;45.042;38.994;2023-08-17T03:08:54;11.50;;;5.38;;
50683;SDS011;36654;45.042;38.994;2023-08-17T03:11:22;8.65;;;5.40;;
50683;SDS011;36654;45.042;38.994;2023-08-17T03:13:47;8.93;;;5.70;;
50683;SDS011;36654;45.042;38.994;2023-08-17T03:16:14;7.63;;;5.18;;
50683;SDS011;36654;45.042;38.994;2023-08-17T03:18:40;10.35;;;6.10;;
50683;SDS011;36654;45.042;38.994;2023-08-17T03:21:06;10.70;;;6.38;;
50683;SDS011;36654;45.042;38.994;2023-08-17T03:23:32;7.97;;;5.82;;
50683;SDS011;36654;45.042;38.994;2023-08-17T03:25:58;10.07;;;6.78;;
50683;SDS011;36654;45.042;38.994;2023-08-17T03:28:24;8.90;;;6.13;;
50683;SDS011;36654;45.042;38.994;2023-08-17T03:30:54;8.05;;;5.68;;
50683;SDS011;36654;45.042;38.994;2023-08-17T03:33:21;9.95;;;5.78;;
50683;SDS011;36654;45.042;38.994;2023-08-17T03:35:46;7.80;;;5.88;;
50683;SDS011;36654;45.042;38.994;2023-08-17T03:38:12;9.02;;;5.45;;
50683;SDS011;36654;45.042;38.994;2023-08-17T03:40:38;15.00;;;6.00;;
50683;SDS011;36654;45.042;38.994;2023-08-17T03:43:04;12.00;;;6.18;;
50683;SDS011;36654;45.042;38.994;2023-08-17T03:45:29;11.68;;;6.70;;
50683;SDS011;36654;45.042;38.994;2023-08-17T03:47:56;9.10;;;6.00;;
50683;SDS011;36654;45.042;38.994;2023-08-17T03:50:21;14.02;;;6.57;;
50683;SDS011;36654;45.042;38.994;2023-08-17T03:52:47;10.90;;;6.25;;
50683;SDS011;36654;45.042;38.994;2023-08-17T03:55:13;9.10;;;6.35;;
50683;SDS011;36654;45.042;38.994;2023-08-17T03:57:38;11.25;;;5.78;;
50683;SDS011;36654;45.042;38.994;2023-08-17T04:00:04;9.82;;;5.63;;
50683;SDS011;36654;45.042;38.994;2023-08-17T04:02:31;15.00;;;6.25;;
50683;SDS011;36654;45.042;38.994;2023-08-17T04:04:57;8.90;;;5.93;;
50683;SDS011;36654;45.042;38.994;2023-08-17T04:07:23;8.32;;;5.50;;
50683;SDS011;36654;45.042;38.994;2023-08-17T04:09:48;12.35;;;5.47;;
50683;SDS011;36654;45.042;38.994;2023-08-17T04:12:14;12.48;;;5.88;;
50683;SDS011;36654;45.042;38.994;2023-08-17T04:14:40;15.30;;;5.70;;
50683;SDS011;36654;45.042;38.994;2023-08-17T04:17:05;10.50;;;6.05;;
50683;SDS011;36654;45.042;38.994;2023-08-17T04:19:32;11.07;;;5.60;;
50683;SDS011;36654;45.042;38.994;2023-08-17T04:21:57;10.50;;;5.57;;
50683;SDS011;36654;45.042;38.994;2023-08-17T04:24:23;8.13;;;5.30;;
50683;SDS011;36654;45.042;38.994;2023-08-17T04:26:49;8.82;;;5.30;;
50683;SDS011;36654;45.042;38.994;2023-08-17T04:29:15;14.73;;;6.10;;
50683;SDS011;36654;45.042;38.994;2023-08-17T04:31:40;12.52;;;5.43;;
50683;SDS011;36654;45.042;38.994;2023-08-17T04:34:06;8.15;;;5.53;;
50683;SDS011;36654;45.042;38.994;2023-08-17T04:36:32;13.15;;;5.50;;
50683;SDS011;36654;45.042;38.994;2023-08-17T04:38:57;11.45;;;4.78;;
50683;SDS011;36654;45.042;38.994;2023-08-17T04:41:23;13.40;;;5.57;;
50683;SDS011;36654;45.042;38.994;2023-08-17T04:43:49;12.32;;;5.05;;
50683;SDS011;36654;45.042;38.994;2023-08-17T04:46:14;7.68;;;5.30;;
50683;SDS011;36654;45.042;38.994;2023-08-17T04:48:40;8.80;;;5.03;;
50683;SDS011;36654;45.042;38.994;2023-08-17T04:51:06;11.75;;;5.07;;
50683;SDS011;36654;45.042;38.994;2023-08-17T04:53:31;11.45;;;4.95;;
50683;SDS011;36654;45.042;38.994;2023-08-17T04:55:58;12.30;;;5.32;;
50683;SDS011;36654;45.042;38.994;2023-08-17T04:58:24;11.02;;;5.55;;
50683;SDS011;36654;45.042;38.994;2023-08-17T05:00:49;9.98;;;5.70;;
50683;SDS011;36654;45.042;38.994;2023-08-17T05:03:15;9.00;;;5.40;;
50683;SDS011;36654;45.042;38.994;2023-08-17T05:05:41;12.18;;;5.78;;
50683;SDS011;36654;45.042;38.994;2023-08-17T05:08:06;7.40;;;4.28;;
50683;SDS011;36654;45.042;38.994;2023-08-17T05:10:32;9.68;;;5.55;;
50683;SDS011;36654;45.042;38.994;2023-08-17T05:12:58;10.07;;;5.45;;
50683;SDS011;36654;45.042;38.994;2023-08-17T05:15:23;10.93;;;5.80;;
50683;SDS011;36654;45.042;38.994;2023-08-17T05:17:49;8.13;;;4.93;;
50683;SDS011;36654;45.042;38.994;2023-08-17T05:20:14;7.85;;;5.28;;
50683;SDS011;36654;45.042;38.994;2023-08-17T05:22:40;12.00;;;5.13;;
50683;SDS011;36654;45.042;38.994;2023-08-17T05:25:06;8.32;;;4.43;;
50683;SDS011;36654;45.042;38.994;2023-08-17T05:27:32;14.27;;;5.68;;
50683;SDS011;36654;45.042;38.994;2023-08-17T05:29:58;11.93;;;5.10;;
50683;SDS011;36654;45.042;38.994;2023-08-17T05:32:23;8.45;;;5.10;;
50683;SDS011;36654;45.042;38.994;2023-08-17T05:34:49;10.80;;;5.22;;
50683;SDS011;36654;45.042;38.994;2023-08-17T05:37:14;9.95;;;5.07;;
50683;SDS011;36654;45.042;38.994;2023-08-17T05:39:41;8.82;;;5.15;;
50683;SDS011;36654;45.042;38.994;2023-08-17T05:42:07;10.82;;;4.95;;
50683;SDS011;36654;45.042;38.994;2023-08-17T05:44:32;7.32;;;4.72;;
50683;SDS011;36654;45.042;38.994;2023-08-17T05:46:58;11.63;;;5.07;;
50683;SDS011;36654;45.042;38.994;2023-08-17T05:49:23;11.85;;;5.05;;
50683;SDS011;36654;45.042;38.994;2023-08-17T05:51:49;6.97;;;4.78;;
50683;SDS011;36654;45.042;38.994;2023-08-17T05:54:15;8.77;;;4.60;;
50683;SDS011;36654;45.042;38.994;2023-08-17T05:56:40;12.45;;;5.35;;
50683;SDS011;36654;45.042;38.994;2023-08-17T05:59:11;8.02;;;4.90;;
50683;SDS011;36654;45.042;38.994;2023-08-17T06:01:37;5.93;;;4.95;;
50683;SDS011;36654;45.042;38.994;2023-08-17T06:04:03;9.55;;;4.65;;
50683;SDS011;36654;45.042;38.994;2023-08-17T06:06:29;7.03;;;4.88;;
50683;SDS011;36654;45.042;38.994;2023-08-17T06:08:55;7.70;;;5.15;;
50683;SDS011;36654;45.042;38.994;2023-08-17T06:11:20;8.55;;;5.28;;
50683;SDS011;36654;45.042;38.994;2023-08-17T06:13:46;5.07;;;4.40;;
50683;SDS011;36654;45.042;38.994;2023-08-17T06:16:11;7.45;;;5.00;;
50683;SDS011;36654;45.042;38.994;2023-08-17T06:18:37;9.15;;;4.72;;
50683;SDS011;36654;45.042;38.994;2023-08-17T06:21:04;10.57;;;4.70;;
50683;SDS011;36654;45.042;38.994;2023-08-17T06:23:30;11.10;;;5.15;;
50683;SDS011;36654;45.042;38.994;2023-08-17T06:25:56;11.23;;;5.35;;
50683;SDS011;36654;45.042;38.994;2023-08-17T06:28:23;8.15;;;5.28;;
50683;SDS011;36654;45.042;38.994;2023-08-17T06:30:51;7.38;;;5.15;;
50683;SDS011;36654;45.042;38.994;2023-08-17T06:33:18;14.52;;;4.82;;
50683;SDS011;36654;45.042;38.994;2023-08-17T06:35:44;7.68;;;5.38;;
50683;SDS011;36654;45.042;38.994;2023-08-17T06:38:10;6.38;;;5.47;;
50683;SDS011;36654;45.042;38.994;2023-08-17T06:40:35;6.00;;;4.80;;
50683;SDS011;36654;45.042;38.994;2023-08-17T06:43:01;7.65;;;5.00;;
50683;SDS011;36654;45.042;38.994;2023-08-17T06:45:26;9.38;;;4.88;;
50683;SDS011;36654;45.042;38.994;2023-08-17T06:47:52;8.93;;;4.70;;
50683;SDS011;36654;45.042;38.994;2023-08-17T06:50:18;8.57;;;4.68;;
50683;SDS011;36654;45.042;38.994;2023-08-17T06:52:43;6.53;;;5.00;;
50683;SDS011;36654;45.042;38.994;2023-08-17T06:55:09;10.15;;;4.72;;
50683;SDS011;36654;45.042;38.994;2023-08-17T06:57:37;9.27;;;4.38;;
50683;SDS011;36654;45.042;38.994;2023-08-17T07:00:03;10.15;;;5.32;;
50683;SDS011;36654;45.042;38.994;2023-08-17T07:02:33;10.55;;;4.70;;
50683;SDS011;36654;45.042;38.994;2023-08-17T07:04:59;12.02;;;4.82;;
50683;SDS011;36654;45.042;38.994;2023-08-17T07:07:26;6.35;;;4.45;;
50683;SDS011;36654;45.042;38.994;2023-08-17T07:09:51;14.48;;;5.15;;
50683;SDS011;36654;45.042;38.994;2023-08-17T07:12:17;6.80;;;4.95;;
50683;SDS011;36654;45.042;38.994;2023-08-17T07:14:44;11.35;;;4.90;;
50683;SDS011;36654;45.042;38.994;2023-08-17T07:17:10;12.75;;;4.57;;
50683;SDS011;36654;45.042;38.994;2023-08-17T07:19:35;9.65;;;4.45;;
50683;SDS011;36654;45.042;38.994;2023-08-17T07:22:01;10.52;;;4.70;;
50683;SDS011;36654;45.042;38.994;2023-08-17T07:24:27;9.45;;;4.57;;
50683;SDS011;36654;45.042;38.994;2023-08-17T07:26:52;9.32;;;4.55;;
50683;SDS011;36654;45.042;38.994;2023-08-17T07:29:18;9.00;;;4.32;;
50683;SDS011;36654;45.042;38.994;2023-08-17T07:31:44;12.88;;;4.22;;
50683;SDS011;36654;45.042;38.994;2023-08-17T07:34:09;7.28;;;4.72;;
50683;SDS011;36654;45.042;38.994;2023-08-17T07:36:35;8.10;;;4.07;;
50683;SDS011;36654;45.042;38.994;2023-08-17T07:39:01;4.47;;;3.83;;
50683;SDS011;36654;45.042;38.994;2023-08-17T07:41:26;16.10;;;4.25;;
50683;SDS011;36654;45.042;38.994;2023-08-17T07:43:52;6.97;;;3.70;;
50683;SDS011;36654;45.042;38.994;2023-08-17T07:46:18;7.80;;;3.88;;
50683;SDS011;36654;45.042;38.994;2023-08-17T07:48:43;5.78;;;3.60;;
50683;SDS011;36654;45.042;38.994;2023-08-17T07:51:09;6.75;;;3.72;;
50683;SDS011;36654;45.042;38.994;2023-08-17T07:53:35;8.27;;;3.30;;
50683;SDS011;36654;45.042;38.994;2023-08-17T07:56:00;6.65;;;3.83;;
50683;SDS011;36654;45.042;38.994;2023-08-17T07:58:26;5.57;;;2.85;;
50683;SDS011;36654;45.042;38.994;2023-08-17T08:00:52;5.47;;;3.72;;
50683;SDS011;36654;45.042;38.994;2023-08-17T08:03:17;7.40;;;3.50;;
50683;SDS011;36654;45.042;38.994;2023-08-17T08:05:43;8.95;;;3.65;;
50683;SDS011;36654;45.042;38.994;2023-08-17T08:08:09;15.00;;;3.60;;
50683;SDS011;36654;45.042;38.994;2023-08-17T08:10:35;8.20;;;3.53;;
50683;SDS011;36654;45.042;38.994;2023-08-17T08:13:00;10.10;;;3.53;;
50683;SDS011;36654;45.042;38.994;2023-08-17T08:15:26;7.43;;;3.15;;
50683;SDS011;36654;45.042;38.994;2023-08-17T08:17:52;9.93;;;3.13;;
50683;SDS011;36654;45.042;38.994;2023-08-17T08:20:17;8.20;;;3.33;;
50683;SDS011;36654;45.042;38.994;2023-08-17T08:22:43;9.85;;;3.53;;
50683;SDS011;36654;45.042;38.994;2023-08-17T08:25:09;7.35;;;3.20;;
50683;SDS011;36654;45.042;38.994;2023-08-17T08:27:35;8.10;;;3.33;;
50683;SDS011;36654;45.042;38.994;2023-08-17T08:30:01;10.57;;;3.75;;
50683;SDS011;36654;45.042;38.994;2023-08-17T08:32:26;11.63;;;3.85;;
50683;SDS011;36654;45.042;38.994;2023-08-17T08:34:52;4.07;;;3.22;;
50683;SDS011;36654;45.042;38.994;2023-08-17T08:37:18;9.68;;;3.25;;
50683;SDS011;36654;45.042;38.994;2023-08-17T08:39:53;7.90;;;3.15;;
50683;SDS011;36654;45.042;38.994;2023-08-17T08:42:19;5.85;;;2.92;;
50683;SDS011;36654;45.042;38.994;2023-08-17T08:44:46;7.38;;;3.22;;
50683;SDS011;36654;45.042;38.994;2023-08-17T08:47:13;8.43;;;3.10;;
50683;SDS011;36654;45.042;38.994;2023-08-17T08:49:39;10.25;;;3.40;;
50683;SDS011;36654;45.042;38.994;2023-08-17T08:52:10;9.65;;;3.40;;
50683;SDS011;36654;45.042;38.994;2023-08-17T08:54:40;9.13;;;3.22;;
50683;SDS011;36654;45.042;38.994;2023-08-17T08:57:08;7.50;;;3.53;;
50683;SDS011;36654;45.042;38.994;2023-08-17T08:59:41;7.40;;;3.53;;
50683;SDS011;36654;45.042;38.994;2023-08-17T09:02:14;11.77;;;3.30;;
50683;SDS011;36654;45.042;38.994;2023-08-17T09:04:42;8.13;;;3.10;;
50683;SDS011;36654;45.042;38.994;2023-08-17T09:07:10;7.70;;;3.08;;
50683;SDS011;36654;45.042;38.994;2023-08-17T09:09:38;8.45;;;3.33;;
50683;SDS011;36654;45.042;38.994;2023-08-17T09:12:07;9.95;;;3.40;;
50683;SDS011;36654;45.042;38.994;2023-08-17T09:14:36;6.90;;;2.95;;
50683;SDS011;36654;45.042;38.994;2023-08-17T09:17:06;6.38;;;3.10;;
50683;SDS011;36654;45.042;38.994;2023-08-17T09:19:32;5.07;;;2.88;;
50683;SDS011;36654;45.042;38.994;2023-08-17T09:21:58;5.78;;;3.70;;
50683;SDS011;36654;45.042;38.994;2023-08-17T09:24:33;9.73;;;3.15;;
50683;SDS011;36654;45.042;38.994;2023-08-17T09:27:02;4.88;;;3.10;;
50683;SDS011;36654;45.042;38.994;2023-08-17T09:29:28;9.25;;;3.25;;
50683;SDS011;36654;45.042;38.994;2023-08-17T09:32:05;7.63;;;3.50;;
50683;SDS011;36654;45.042;38.994;2023-08-17T09:34:32;6.80;;;3.17;;
50683;SDS011;36654;45.042;38.994;2023-08-17T09:37:04;5.53;;;3.22;;
50683;SDS011;36654;45.042;38.994;2023-08-17T09:39:31;7.10;;;2.78;;
50683;SDS011;36654;45.042;38.994;2023-08-17T09:41:57;14.38;;;3.17;;
50683;SDS011;36654;45.042;38.994;2023-08-17T09:44:24;6.15;;;3.08;;
50683;SDS011;36654;45.042;38.994;2023-08-17T09:46:49;8.18;;;3.22;;
50683;SDS011;36654;45.042;38.994;2023-08-17T09:49:16;7.20;;;3.42;;
50683;SDS011;36654;45.042;38.994;2023-08-17T09:51:43;9.68;;;3.10;;
50683;SDS011;36654;45.042;38.994;2023-08-17T09:54:22;10.48;;;3.97;;
50683;SDS011;36654;45.042;38.994;2023-08-17T09:56:51;8.70;;;3.67;;
50683;SDS011;36654;45.042;38.994;2023-08-17T09:59:18;6.85;;;3.17;;
50683;SDS011;36654;45.042;38.994;2023-08-17T10:01:44;7.78;;;3.28;;
50683;SDS011;36654;45.042;38.994;2023-08-17T10:04:13;7.50;;;2.88;;
50683;SDS011;36654;45.042;38.994;2023-08-17T10:06:47;7.05;;;3.40;;
50683;SDS011;36654;45.042;38.994;2023-08-17T10:09:18;6.03;;;3.13;;
50683;SDS011;36654;45.042;38.994;2023-08-17T10:11:49;10.05;;;3.33;;
50683;SDS011;36654;45.042;38.994;2023-08-17T10:14:20;11.63;;;4.03;;
50683;SDS011;36654;45.042;38.994;2023-08-17T10:16:49;9.18;;;3.28;;
50683;SDS011;36654;45.042;38.994;2023-08-17T10:19:39;8.48;;;3.90;;
50683;SDS011;36654;45.042;38.994;2023-08-17T10:24:52;5.90;;;2.65;;
50683;SDS011;36654;45.042;38.994;2023-08-17T10:27:20;11.30;;;3.13;;
50683;SDS011;36654;45.042;38.994;2023-08-17T10:29:46;10.05;;;3.50;;
50683;SDS011;36654;45.042;38.994;2023-08-17T10:32:13;9.30;;;3.50;;
50683;SDS011;36654;45.042;38.994;2023-08-17T10:34:39;7.97;;;3.20;;
50683;SDS011;36654;45.042;38.994;2023-08-17T10:37:06;8.93;;;3.22;;
50683;SDS011;36654;45.042;38.994;2023-08-17T10:39:32;15.68;;;3.67;;
50683;SDS011;36654;45.042;38.994;2023-08-17T10:42:00;10.93;;;4.07;;
50683;SDS011;36654;45.042;38.994;2023-08-17T10:44:45;9.70;;;3.63;;
50683;SDS011;36654;45.042;38.994;2023-08-17T10:47:18;13.80;;;3.85;;
50683;SDS011;36654;45.042;38.994;2023-08-17T10:49:47;7.82;;;3.53;;
50683;SDS011;36654;45.042;38.994;2023-08-17T10:52:13;9.48;;;3.08;;
50683;SDS011;36654;45.042;38.994;2023-08-17T10:54:40;10.85;;;3.63;;
50683;SDS011;36654;45.042;38.994;2023-08-17T11:00:21;7.28;;;3.10;;
50683;SDS011;36654;45.042;38.994;2023-08-17T11:05:42;3.83;;;2.88;;
50683;SDS011;36654;45.042;38.994;2023-08-17T11:08:39;4.40;;;2.92;;
50683;SDS011;36654;45.042;38.994;2023-08-17T11:11:16;4.43;;;3.17;;
50683;SDS011;36654;45.042;38.994;2023-08-17T11:13:46;8.38;;;3.20;;
50683;SDS011;36654;45.042;38.994;2023-08-17T11:16:14;3.22;;;2.80;;
50683;SDS011;36654;45.042;38.994;2023-08-17T11:18:41;12.68;;;3.72;;
50683;SDS011;36654;45.042;38.994;2023-08-17T11:21:07;8.82;;;3.60;;
50683;SDS011;36654;45.042;38.994;2023-08-17T11:23:35;5.45;;;2.92;;
50683;SDS011;36654;45.042;38.994;2023-08-17T11:26:02;9.23;;;3.13;;
50683;SDS011;36654;45.042;38.994;2023-08-17T11:28:32;6.03;;;3.42;;
50683;SDS011;36654;45.042;38.994;2023-08-17T11:31:03;12.73;;;3.65;;
50683;SDS011;36654;45.042;38.994;2023-08-17T11:33:31;6.22;;;2.65;;
50683;SDS011;36654;45.042;38.994;2023-08-17T11:35:57;12.85;;;3.47;;
50683;SDS011;36654;45.042;38.994;2023-08-17T11:38:24;4.03;;;2.70;;
50683;SDS011;36654;45.042;38.994;2023-08-17T11:40:50;4.45;;;3.20;;
50683;SDS011;36654;45.042;38.994;2023-08-17T11:43:17;10.93;;;3.08;;
50683;SDS011;36654;45.042;38.994;2023-08-17T11:45:44;8.43;;;3.58;;
50683;SDS011;36654;45.042;38.994;2023-08-17T11:48:09;7.47;;;3.08;;
50683;SDS011;36654;45.042;38.994;2023-08-17T11:50:35;7.45;;;3.40;;
50683;SDS011;36654;45.042;38.994;2023-08-17T11:53:01;7.82;;;3.47;;
50683;SDS011;36654;45.042;38.994;2023-08-17T11:55:27;4.82;;;3.30;;
50683;SDS011;36654;45.042;38.994;2023-08-17T11:57:53;7.07;;;3.40;;
50683;SDS011;36654;45.042;38.994;2023-08-17T12:00:20;3.67;;;2.97;;
50683;SDS011;36654;45.042;38.994;2023-08-17T12:02:50;8.25;;;3.33;;
50683;SDS011;36654;45.042;38.994;2023-08-17T12:05:20;6.22;;;3.25;;
50683;SDS011;36654;45.042;38.994;2023-08-17T12:07:48;10.38;;;3.10;;
50683;SDS011;36654;45.042;38.994;2023-08-17T12:10:15;15.43;;;3.67;;
50683;SDS011;36654;45.042;38.994;2023-08-17T12:12:41;8.38;;;4.18;;
50683;SDS011;36654;45.042;38.994;2023-08-17T12:15:07;11.20;;;3.03;;
50683;SDS011;36654;45.042;38.994;2023-08-17T12:17:35;11.07;;;3.50;;
50683;SDS011;36654;45.042;38.994;2023-08-17T12:20:02;9.38;;;3.55;;
50683;SDS011;36654;45.042;38.994;2023-08-17T12:22:27;8.93;;;3.08;;
50683;SDS011;36654;45.042;38.994;2023-08-17T12:24:53;9.80;;;3.05;;
50683;SDS011;36654;45.042;38.994;2023-08-17T12:27:19;7.18;;;3.60;;
50683;SDS011;36654;45.042;38.994;2023-08-17T12:29:49;11.15;;;3.53;;
50683;SDS011;36654;45.042;38.994;2023-08-17T12:32:18;7.28;;;3.35;;
50683;SDS011;36654;45.042;38.994;2023-08-17T12:34:45;7.65;;;3.22;;
50683;SDS011;36654;45.042;38.994;2023-08-17T12:37:11;7.13;;;3.65;;
50683;SDS011;36654;45.042;38.994;2023-08-17T12:39:38;8.00;;;3.20;;
50683;SDS011;36654;45.042;38.994;2023-08-17T12:42:04;7.75;;;3.22;;
50683;SDS011;36654;45.042;38.994;2023-08-17T12:44:30;11.18;;;3.35;;
50683;SDS011;36654;45.042;38.994;2023-08-17T12:46:56;4.70;;;2.85;;
50683;SDS011;36654;45.042;38.994;2023-08-17T12:49:23;7.88;;;3.30;;
50683;SDS011;36654;45.042;38.994;2023-08-17T12:51:49;7.55;;;2.88;;
50683;SDS011;36654;45.042;38.994;2023-08-17T12:54:14;8.45;;;3.20;;
50683;SDS011;36654;45.042;38.994;2023-08-17T12:56:40;5.88;;;3.40;;
50683;SDS011;36654;45.042;38.994;2023-08-17T12:59:06;10.40;;;4.00;;
50683;SDS011;36654;45.042;38.994;2023-08-17T13:01:31;6.45;;;3.05;;
50683;SDS011;36654;45.042;38.994;2023-08-17T13:03:57;9.00;;;3.50;;
50683;SDS011;36654;45.042;38.994;2023-08-17T13:06:23;9.93;;;3.50;;
50683;SDS011;36654;45.042;38.994;2023-08-17T13:08:48;10.57;;;3.72;;
50683;SDS011;36654;45.042;38.994;2023-08-17T13:11:14;16.08;;;3.85;;
50683;SDS011;36654;45.042;38.994;2023-08-17T13:13:39;7.15;;;3.13;;
50683;SDS011;36654;45.042;38.994;2023-08-17T13:16:05;7.18;;;3.50;;
50683;SDS011;36654;45.042;38.994;2023-08-17T13:18:31;6.25;;;3.60;;
50683;SDS011;36654;45.042;38.994;2023-08-17T13:20:57;12.65;;;4.28;;
50683;SDS011;36654;45.042;38.994;2023-08-17T13:23:23;9.27;;;3.80;;
50683;SDS011;36654;45.042;38.994;2023-08-17T13:25:49;4.57;;;3.17;;
50683;SDS011;36654;45.042;38.994;2023-08-17T13:28:14;7.57;;;3.45;;
50683;SDS011;36654;45.042;38.994;2023-08-17T13:30:40;10.13;;;3.40;;
50683;SDS011;36654;45.042;38.994;2023-08-17T13:33:06;10.60;;;4.18;;
50683;SDS011;36654;45.042;38.994;2023-08-17T13:35:34;12.98;;;4.28;;
50683;SDS011;36654;45.042;38.994;2023-08-17T13:38:00;8.15;;;3.25;;
50683;SDS011;36654;45.042;38.994;2023-08-17T13:40:29;7.95;;;3.10;;
50683;SDS011;36654;45.042;38.994;2023-08-17T13:42:55;7.97;;;4.15;;
50683;SDS011;36654;45.042;38.994;2023-08-17T13:45:21;6.63;;;3.35;;
50683;SDS011;36654;45.042;38.994;2023-08-17T13:47:48;13.55;;;4.38;;
50683;SDS011;36654;45.042;38.994;2023-08-17T13:50:13;6.18;;;3.42;;
50683;SDS011;36654;45.042;38.994;2023-08-17T13:52:39;9.07;;;3.33;;
50683;SDS011;36654;45.042;38.994;2023-08-17T13:55:05;7.45;;;3.90;;
50683;SDS011;36654;45.042;38.994;2023-08-17T13:57:31;10.88;;;4.20;;
50683;SDS011;36654;45.042;38.994;2023-08-17T13:59:57;6.80;;;3.60;;
50683;SDS011;36654;45.042;38.994;2023-08-17T14:02:22;9.27;;;3.75;;
50683;SDS011;36654;45.042;38.994;2023-08-17T14:04:48;14.27;;;4.28;;
50683;SDS011;36654;45.042;38.994;2023-08-17T14:07:14;6.88;;;3.65;;
50683;SDS011;36654;45.042;38.994;2023-08-17T14:09:39;7.88;;;3.60;;
50683;SDS011;36654;45.042;38.994;2023-08-17T14:12:06;10.43;;;3.92;;
50683;SDS011;36654;45.042;38.994;2023-08-17T14:14:32;10.30;;;4.00;;
50683;SDS011;36654;45.042;38.994;2023-08-17T14:16:58;7.55;;;3.67;;
50683;SDS011;36654;45.042;38.994;2023-08-17T14:19:23;13.18;;;3.47;;
50683;SDS011;36654;45.042;38.994;2023-08-17T14:21:49;8.13;;;3.53;;
50683;SDS011;36654;45.042;38.994;2023-08-17T14:24:16;11.57;;;3.83;;
50683;SDS011;36654;45.042;38.994;2023-08-17T14:26:41;8.85;;;3.70;;
50683;SDS011;36654;45.042;38.994;2023-08-17T14:29:08;7.50;;;3.35;;
50683;SDS011;36654;45.042;38.994;2023-08-17T14:31:34;9.65;;;4.00;;
50683;SDS011;36654;45.042;38.994;2023-08-17T14:33:59;12.82;;;3.47;;
50683;SDS011;36654;45.042;38.994;2023-08-17T14:36:25;10.10;;;4.00;;
50683;SDS011;36654;45.042;38.994;2023-08-17T14:38:50;6.13;;;3.95;;
50683;SDS011;36654;45.042;38.994;2023-08-17T14:41:16;7.65;;;3.60;;
50683;SDS011;36654;45.042;38.994;2023-08-17T14:43:43;10.98;;;4.10;;